createdAt,value
2023-03-06T00:00:36.773Z,4.50
2023-03-06T00:03:39.249Z,5.20
2023-03-06T00:06:41.964Z,5.88
2023-03-06T00:09:44.238Z,3.77
2023-03-06T00:12:46.579Z,5.53
2023-03-06T00:15:49.746Z,5.50
2023-03-06T00:18:52.557Z,4.88
2023-03-06T00:21:55.003Z,4.78
2023-03-06T00:24:57.442Z,5.55
2023-03-06T00:27:59.898Z,6.22
2023-03-06T00:31:02.901Z,6.30
2023-03-06T00:34:05.320Z,5.60
2023-03-06T00:37:07.720Z,6.72
2023-03-06T00:40:15.729Z,6.68
2023-03-06T00:43:18.073Z,6.35
2023-03-06T00:46:20.396Z,6.67
2023-03-06T00:49:22.758Z,6.15
2023-03-06T00:52:25.191Z,6.03
2023-03-06T00:55:29.517Z,5.97
2023-03-06T00:58:31.937Z,5.63
2023-03-06T01:01:34.295Z,5.60
2023-03-06T01:04:36.859Z,6.78
2023-03-06T01:07:39.810Z,9.18
2023-03-06T01:10:42.189Z,8.32
2023-03-06T01:13:44.896Z,7.63
2023-03-06T01:16:48.846Z,6.35
2023-03-06T01:19:52.753Z,6.97
2023-03-06T01:22:56.666Z,7.65
2023-03-06T01:25:59.289Z,7.55
2023-03-06T01:29:02.080Z,6.43
2023-03-06T01:32:04.463Z,7.22
2023-03-06T01:35:08.042Z,7.93
2023-03-06T01:38:10.346Z,7.50
2023-03-06T01:41:15.903Z,7.75
2023-03-06T01:44:18.322Z,8.32
2023-03-06T01:47:22.484Z,8.15
2023-03-06T01:50:24.987Z,8.32
2023-03-06T01:53:27.589Z,7.67
2023-03-06T01:56:30.352Z,7.95
2023-03-06T01:59:34.439Z,7.93
2023-03-06T02:02:37.542Z,7.28
2023-03-06T02:05:42.250Z,5.93
2023-03-06T02:08:44.741Z,7.07
2023-03-06T02:11:47.929Z,6.93
2023-03-06T02:14:50.912Z,5.83
2023-03-06T02:17:53.472Z,7.97
2023-03-06T02:20:58.911Z,6.83
2023-03-06T02:24:38.482Z,7.57
2023-03-06T02:27:41.394Z,7.35
2023-03-06T02:30:45.378Z,6.97
2023-03-06T02:34:00.102Z,7.03
2023-03-06T02:37:06.929Z,7.32
2023-03-06T02:40:12.506Z,6.95
2023-03-06T02:43:16.436Z,7.40
2023-03-06T02:46:19.113Z,6.85
2023-03-06T02:49:21.589Z,5.57
2023-03-06T02:52:23.985Z,7.18
2023-03-06T02:55:26.388Z,6.45
2023-03-06T02:58:30.414Z,6.97
2023-03-06T03:01:32.896Z,6.32
2023-03-06T03:04:35.554Z,6.93
2023-03-06T03:07:38.710Z,6.45
2023-03-06T03:10:41.276Z,6.57
2023-03-06T03:13:43.750Z,6.63
2023-03-06T03:16:52.222Z,7.25
2023-03-06T03:19:55.091Z,6.15
2023-03-06T03:22:58.096Z,7.72
2023-03-06T03:26:19.798Z,6.65
2023-03-06T03:29:35.278Z,7.32
2023-03-06T03:32:38.252Z,6.10
2023-03-06T03:35:40.692Z,5.50
2023-03-06T03:38:43.079Z,6.60
2023-03-06T03:41:46.252Z,6.68
2023-03-06T03:44:49.095Z,6.00
2023-03-06T03:47:52.600Z,5.65
2023-03-06T03:50:55.620Z,5.00
2023-03-06T03:53:59.775Z,6.28
2023-03-06T03:57:05.640Z,6.20
2023-03-06T04:00:16.244Z,5.70
2023-03-06T04:03:41.863Z,6.10
2023-03-06T04:06:45.716Z,6.22
2023-03-06T04:12:51.654Z,6.22
2023-03-06T04:15:55.528Z,7.05
2023-03-06T04:18:59.454Z,7.15
2023-03-06T04:22:02.460Z,6.43
2023-03-06T04:25:07.482Z,6.50
2023-03-06T04:28:11.565Z,12.88
2023-03-06T04:31:14.939Z,7.03
2023-03-06T04:34:18.286Z,6.55
2023-03-06T04:37:23.848Z,6.47
2023-03-06T04:40:30.010Z,6.40
2023-03-06T04:43:32.572Z,7.03
2023-03-06T04:46:35.400Z,10.30
2023-03-06T04:49:37.907Z,13.27
2023-03-06T04:52:40.682Z,28.33
2023-03-06T04:55:43.376Z,24.27
2023-03-06T04:58:45.945Z,25.73
2023-03-06T05:01:48.473Z,17.03
2023-03-06T05:04:50.810Z,13.27
2023-03-06T05:07:53.765Z,10.07
2023-03-06T05:10:58.059Z,8.93
2023-03-06T05:14:00.407Z,10.50
2023-03-06T05:17:02.780Z,8.48
2023-03-06T05:20:09.836Z,9.00
2023-03-06T05:23:12.753Z,8.82
2023-03-06T05:26:15.795Z,9.10
2023-03-06T05:29:18.141Z,11.10
2023-03-06T05:32:21.202Z,19.38
2023-03-06T05:35:24.039Z,22.15
2023-03-06T05:38:26.620Z,30.38
2023-03-06T05:41:29.210Z,21.00
2023-03-06T05:44:35.586Z,21.13
2023-03-06T05:47:38.190Z,33.05
2023-03-06T05:50:40.871Z,48.37
2023-03-06T05:53:43.415Z,37.10
2023-03-06T05:56:45.817Z,24.93
2023-03-06T05:59:49.218Z,26.95
2023-03-06T06:02:51.490Z,32.20
2023-03-06T06:05:54.026Z,29.27
2023-03-06T06:08:56.370Z,26.80
2023-03-06T06:12:01.844Z,25.95
2023-03-06T06:15:04.845Z,24.63
2023-03-06T06:18:07.168Z,18.38
2023-03-06T06:21:11.450Z,17.48
2023-03-06T06:24:14.661Z,18.90
2023-03-06T06:27:17.232Z,23.02
2023-03-06T06:30:20.056Z,22.33
2023-03-06T06:33:22.427Z,17.73
2023-03-06T06:36:24.980Z,17.73
2023-03-06T06:39:27.547Z,18.10
2023-03-06T06:42:36.308Z,17.17
2023-03-06T06:45:44.387Z,14.77
2023-03-06T06:48:49.663Z,13.13
2023-03-06T06:51:52.423Z,13.20
2023-03-06T06:54:55.390Z,10.80
2023-03-06T06:57:58.028Z,11.48
2023-03-06T07:01:09.151Z,14.35
2023-03-06T07:04:13.891Z,13.95
2023-03-06T07:07:16.467Z,17.90
2023-03-06T07:10:20.721Z,12.52
2023-03-06T07:13:23.581Z,10.95
2023-03-06T07:16:26.386Z,11.13
2023-03-06T07:19:28.941Z,8.07
2023-03-06T07:22:38.716Z,13.00
2023-03-06T07:25:51.117Z,9.68
2023-03-06T07:28:53.931Z,10.07
2023-03-06T07:31:56.605Z,9.80
2023-03-06T07:35:18.782Z,10.82
2023-03-06T07:38:21.694Z,14.88
2023-03-06T07:41:24.236Z,15.10
2023-03-06T07:44:27.134Z,13.80
2023-03-06T07:47:29.492Z,10.60
2023-03-06T07:50:33.088Z,91.05
2023-03-06T07:53:35.961Z,30.58
2023-03-06T07:56:39.010Z,9.75
2023-03-06T07:59:41.579Z,10.70
2023-03-06T08:02:44.325Z,11.73
2023-03-06T08:05:47.009Z,12.52
2023-03-06T08:08:50.211Z,11.88
2023-03-06T08:11:53.135Z,7.20
2023-03-06T08:14:55.546Z,10.38
2023-03-06T08:17:58.455Z,12.15
2023-03-06T08:21:05.571Z,8.85
2023-03-06T08:24:08.671Z,12.63
2023-03-06T08:27:11.068Z,47.10
2023-03-06T08:30:14.289Z,36.67
2023-03-06T08:33:16.819Z,8.13
2023-03-06T08:36:19.628Z,9.70
2023-03-06T08:39:23.865Z,9.07
2023-03-06T08:42:26.261Z,9.38
2023-03-06T08:45:28.796Z,8.07
2023-03-06T08:48:31.730Z,6.40
2023-03-06T08:51:34.204Z,5.67
2023-03-06T08:54:37.064Z,6.07
2023-03-06T08:57:39.742Z,6.35
2023-03-06T09:00:42.246Z,7.38
2023-03-06T09:03:44.819Z,6.65
2023-03-06T09:06:47.482Z,6.78
2023-03-06T09:09:50.130Z,7.80
2023-03-06T09:12:55.034Z,6.88
2023-03-06T09:15:57.745Z,9.98
2023-03-06T09:19:00.277Z,6.10
2023-03-06T09:22:02.718Z,7.18
2023-03-06T09:25:06.730Z,7.90
2023-03-06T09:31:17.123Z,7.40
2023-03-06T09:34:19.453Z,6.90
2023-03-06T09:37:21.875Z,7.75
2023-03-06T09:40:42.463Z,7.28
2023-03-06T09:43:48.306Z,7.00
2023-03-06T09:47:12.250Z,5.97
2023-03-06T09:50:43.504Z,6.13
2023-03-06T09:54:00.093Z,51.08
2023-03-06T09:57:03.670Z,8.32
2023-03-06T10:00:12.033Z,16.50
2023-03-06T10:03:27.718Z,9.75
2023-03-06T10:06:34.047Z,8.75
2023-03-06T10:10:00.928Z,12.32
2023-03-06T10:13:07.065Z,14.90
2023-03-06T10:16:31.281Z,10.48
2023-03-06T10:19:40.354Z,8.07
2023-03-06T10:23:01.051Z,8.23
2023-03-06T10:26:14.210Z,7.35
2023-03-06T10:29:39.197Z,6.95
2023-03-06T10:32:58.060Z,6.93
2023-03-06T10:36:00.791Z,12.25
2023-03-06T10:39:07.660Z,14.63
2023-03-06T10:42:10.357Z,8.68
2023-03-06T10:45:15.449Z,5.85
2023-03-06T10:48:29.798Z,8.88
2023-03-06T10:54:39.497Z,9.90
2023-03-06T10:57:41.797Z,10.00
2023-03-06T11:00:44.176Z,46.90
2023-03-06T11:03:47.788Z,9.85
2023-03-06T11:07:15.039Z,9.02
2023-03-06T11:10:19.631Z,6.45
2023-03-06T11:13:24.257Z,6.93
2023-03-06T11:16:30.846Z,7.63
2023-03-06T11:19:34.092Z,7.97
2023-03-06T11:22:37.069Z,9.90
2023-03-06T11:25:48.357Z,7.40
2023-03-06T11:28:59.577Z,8.90
2023-03-06T11:32:13.255Z,8.68
2023-03-06T11:35:28.605Z,9.90
2023-03-06T11:38:40.050Z,8.60
2023-03-06T11:41:54.397Z,9.90
2023-03-06T11:48:17.654Z,11.40
2023-03-06T11:51:25.993Z,12.63
2023-03-06T11:54:28.451Z,15.07
2023-03-06T11:57:36.409Z,12.77
2023-03-06T12:00:44.684Z,13.38
2023-03-06T12:03:52.828Z,13.45
2023-03-06T12:07:01.617Z,29.20
2023-03-06T12:10:24.839Z,16.60
2023-03-06T12:13:38.363Z,75.88
2023-03-06T12:16:47.112Z,23.75
2023-03-06T12:19:59.457Z,14.15
2023-03-06T12:23:31.193Z,13.35
2023-03-06T12:26:43.519Z,15.93
2023-03-06T12:30:04.720Z,29.13
2023-03-06T12:33:18.333Z,14.43
2023-03-06T12:36:29.673Z,14.02
2023-03-06T12:39:57.557Z,16.23
2023-03-06T12:43:07.292Z,14.13
2023-03-06T12:46:16.224Z,14.27
2023-03-06T12:49:38.704Z,25.17
2023-03-06T12:52:42.993Z,11.30
2023-03-06T12:55:49.791Z,13.02
2023-03-06T12:58:54.786Z,13.63
2023-03-06T13:02:05.131Z,14.18
2023-03-06T13:05:34.934Z,19.50
2023-03-06T13:08:55.415Z,16.77
2023-03-06T13:11:57.739Z,16.25
2023-03-06T13:15:01.779Z,13.63
2023-03-06T13:21:42.788Z,15.48
2023-03-06T13:24:45.848Z,26.48
2023-03-06T13:27:53.978Z,15.13
2023-03-06T13:30:56.468Z,12.38
2023-03-06T13:34:37.736Z,8.98
2023-03-06T13:37:49.770Z,7.75
2023-03-06T13:40:52.232Z,6.95
2023-03-06T13:43:59.430Z,10.95
2023-03-06T13:47:05.453Z,12.90
2023-03-06T13:50:38.520Z,8.23
2023-03-06T13:54:17.552Z,7.50
2023-03-06T13:57:43.928Z,9.43
2023-03-06T14:01:17.874Z,10.65
2023-03-06T14:04:44.863Z,11.87
2023-03-06T14:08:05.121Z,12.00
2023-03-06T14:11:21.053Z,11.75
2023-03-06T14:14:33.593Z,12.48
2023-03-06T14:17:39.331Z,11.07
2023-03-06T14:20:45.776Z,12.75
2023-03-06T14:24:01.119Z,34.63
2023-03-06T14:27:03.857Z,19.45
2023-03-06T14:30:15.270Z,15.90
2023-03-06T14:33:51.241Z,15.68
2023-03-06T14:37:05.735Z,17.90
2023-03-06T14:40:11.664Z,13.77
2023-03-06T14:43:27.025Z,13.02
2023-03-06T14:46:29.865Z,69.55
2023-03-06T14:49:32.251Z,23.77
2023-03-06T14:52:34.861Z,14.50
2023-03-06T14:55:37.230Z,13.90
2023-03-06T14:58:52.956Z,11.73
2023-03-06T15:02:01.050Z,12.00
2023-03-06T15:05:07.479Z,72.18
2023-03-06T15:08:10.666Z,32.22
2023-03-06T15:11:13.033Z,15.98
2023-03-06T15:14:20.011Z,13.38
2023-03-06T15:17:28.246Z,26.90
2023-03-06T15:20:36.425Z,45.67
2023-03-06T15:23:39.935Z,30.83
2023-03-06T15:26:42.358Z,26.60
2023-03-06T15:29:45.138Z,37.50
2023-03-06T15:32:47.761Z,37.70
2023-03-06T15:35:55.145Z,27.73
2023-03-06T15:38:58.525Z,32.40
2023-03-06T15:42:09.390Z,36.30
2023-03-06T15:45:30.939Z,57.30
2023-03-06T15:48:36.713Z,22.02
2023-03-06T15:51:39.174Z,17.80
2023-03-06T15:54:41.539Z,25.33
2023-03-06T15:58:04.791Z,28.20
2023-03-06T16:01:09.055Z,21.60
2023-03-06T16:04:12.403Z,35.92
2023-03-06T16:07:15.412Z,33.28
2023-03-06T16:10:26.629Z,23.17
2023-03-06T16:13:29.522Z,29.40
2023-03-06T16:16:37.784Z,23.83
2023-03-06T16:19:41.019Z,43.83
2023-03-06T16:22:44.832Z,25.83
2023-03-06T16:25:49.404Z,30.70
2023-03-06T16:28:51.795Z,30.77
2023-03-06T16:31:56.584Z,26.77
2023-03-06T16:34:58.969Z,27.38
2023-03-06T16:38:01.301Z,24.52
2023-03-06T16:41:03.754Z,22.65
2023-03-06T16:44:07.907Z,22.55
2023-03-06T16:47:12.099Z,22.10
2023-03-06T16:50:27.986Z,28.58
2023-03-06T16:53:30.359Z,39.10
2023-03-06T16:56:32.616Z,85.38
2023-03-06T16:59:35.006Z,49.70
2023-03-06T17:02:39.133Z,29.95
2023-03-06T17:05:43.990Z,28.65
2023-03-06T17:08:47.177Z,35.75
2023-03-06T17:11:49.777Z,35.30
2023-03-06T17:14:55.089Z,48.42
2023-03-06T17:17:57.930Z,48.72
2023-03-06T17:21:00.548Z,36.57
2023-03-06T17:24:03.869Z,61.30
2023-03-06T17:27:06.326Z,38.22
2023-03-06T17:30:09.976Z,32.70
2023-03-06T17:33:12.330Z,29.83
2023-03-06T17:36:15.496Z,28.25
2023-03-06T17:39:17.825Z,25.98
2023-03-06T17:42:20.264Z,34.47
2023-03-06T17:45:22.690Z,37.78
2023-03-06T17:48:25.304Z,37.03
2023-03-06T17:51:29.767Z,37.90
2023-03-06T17:54:33.444Z,39.63
2023-03-06T17:57:36.040Z,39.05
2023-03-06T18:00:40.142Z,37.35
2023-03-06T18:03:48.310Z,32.92
2023-03-06T18:06:50.948Z,33.33
2023-03-06T18:09:53.228Z,36.80
2023-03-06T18:12:56.785Z,37.95
2023-03-06T18:15:59.614Z,34.25
2023-03-06T18:19:02.297Z,27.43
2023-03-06T18:22:04.857Z,34.85
2023-03-06T18:25:07.796Z,35.20
2023-03-06T18:28:11.285Z,38.78
2023-03-06T18:31:34.408Z,37.40
2023-03-06T18:34:37.716Z,30.98
2023-03-06T18:37:40.482Z,28.73
2023-03-06T18:40:43.206Z,24.02
2023-03-06T18:43:45.952Z,30.70
2023-03-06T18:46:48.358Z,30.93
2023-03-06T18:49:50.715Z,30.52
2023-03-06T18:52:52.983Z,28.65
2023-03-06T18:55:55.608Z,26.25
2023-03-06T18:59:01.745Z,25.63
2023-03-06T19:02:04.458Z,26.38
2023-03-06T19:05:07.263Z,27.27
2023-03-06T19:08:09.895Z,26.63
2023-03-06T19:11:17.254Z,27.27
2023-03-06T19:14:21.426Z,25.77
2023-03-06T19:17:25.008Z,25.85
2023-03-06T19:20:27.866Z,24.27
2023-03-06T19:23:30.300Z,19.50
2023-03-06T19:26:32.624Z,25.45
2023-03-06T19:29:35.021Z,26.35
2023-03-06T19:32:37.883Z,24.77
2023-03-06T19:35:40.484Z,21.30
2023-03-06T19:38:43.469Z,29.00
2023-03-06T19:41:47.771Z,33.15
2023-03-06T19:44:50.147Z,32.35
2023-03-06T19:47:55.562Z,30.98
2023-03-06T19:50:57.862Z,27.92
2023-03-06T19:54:00.254Z,27.08
2023-03-06T19:57:02.759Z,27.35
2023-03-06T20:00:05.892Z,26.55
2023-03-06T20:03:14.925Z,23.83
2023-03-06T20:06:19.061Z,24.75
2023-03-06T20:09:21.991Z,21.40
2023-03-06T20:12:24.485Z,17.60
2023-03-06T20:15:28.171Z,22.85
2023-03-06T20:21:38.176Z,24.65
2023-03-06T20:24:40.693Z,22.88
2023-03-06T20:27:44.494Z,24.52
2023-03-06T20:30:46.993Z,22.90
2023-03-06T20:33:51.843Z,24.20
2023-03-06T20:36:54.215Z,23.38
2023-03-06T20:39:56.611Z,23.52
2023-03-06T20:42:59.164Z,23.88
2023-03-06T20:46:03.524Z,25.52
2023-03-06T20:49:06.005Z,25.10
2023-03-06T20:52:08.366Z,23.52
2023-03-06T20:55:11.004Z,24.90
2023-03-06T20:58:13.327Z,24.45
2023-03-06T21:01:23.763Z,23.70
2023-03-06T21:04:26.281Z,24.33
2023-03-06T21:07:28.683Z,24.95
2023-03-06T21:10:31.247Z,25.80
2023-03-06T21:13:33.559Z,24.95
2023-03-06T21:16:36.625Z,25.50
2023-03-06T21:19:39.264Z,24.60
2023-03-06T21:22:41.583Z,26.38
2023-03-06T21:25:49.028Z,25.60
2023-03-06T21:28:51.735Z,25.60
2023-03-06T21:31:54.245Z,29.23
2023-03-06T21:34:56.641Z,28.23
2023-03-06T21:37:58.995Z,30.38
2023-03-06T21:41:15.321Z,29.73
2023-03-06T21:44:17.803Z,29.20
2023-03-06T21:47:20.119Z,27.88
2023-03-06T21:50:22.885Z,27.25
2023-03-06T21:53:25.216Z,27.40
2023-03-06T21:56:28.597Z,27.27
2023-03-06T21:59:31.338Z,27.77
2023-03-06T22:02:33.667Z,28.05
2023-03-06T22:05:35.925Z,26.88
2023-03-06T22:08:38.344Z,27.02
2023-03-06T22:11:42.362Z,27.05
2023-03-06T22:14:44.702Z,27.27
2023-03-06T22:17:48.656Z,26.88
2023-03-06T22:20:52.221Z,25.98
2023-03-06T22:23:59.964Z,27.80
2023-03-06T22:27:02.298Z,30.52
2023-03-06T22:30:05.204Z,29.90
2023-03-06T22:33:07.583Z,25.00
2023-03-06T22:36:14.868Z,27.90
2023-03-06T22:39:17.520Z,30.48
2023-03-06T22:42:19.938Z,26.58
2023-03-06T22:45:22.217Z,43.45
2023-03-06T22:48:24.607Z,44.13
2023-03-06T22:51:28.058Z,42.78
2023-03-06T22:54:30.469Z,40.85
2023-03-06T22:57:32.879Z,40.75
2023-03-06T23:00:35.441Z,39.15
2023-03-06T23:03:39.313Z,45.25
2023-03-06T23:06:43.326Z,43.38
2023-03-06T23:09:45.756Z,38.17
2023-03-06T23:13:07.166Z,33.17
2023-03-06T23:16:28.184Z,30.30
2023-03-06T23:19:50.492Z,41.10
2023-03-06T23:23:11.815Z,82.38
2023-03-06T23:26:17.804Z,61.40
2023-03-06T23:29:20.131Z,50.22
2023-03-06T23:32:22.525Z,41.67
2023-03-06T23:35:24.919Z,31.55
2023-03-06T23:38:27.341Z,32.42
2023-03-06T23:41:29.710Z,29.95
2023-03-06T23:44:31.995Z,28.77
2023-03-06T23:47:34.718Z,27.55
2023-03-06T23:50:41.199Z,24.30
2023-03-06T23:53:44.673Z,30.73
2023-03-06T23:56:46.970Z,26.95
2023-03-06T23:59:49.349Z,31.33
